Time;durP1;ratioP1;P1;durP2;ratioP2;P2;SDS_P1;SDS_P2;PMS_P1;PMS_P2;Temp;Humidity;BMP_temperature;BMP_pressure;BME280_temperature;BME280_humidity;BME280_pressure;Samples;Min_cycle;Max_cycle;Signal;HPM_P1;HPM_P2
2021/04/18 00:00:21;;;;;;;9.23;5.33;;;7.20;75.50;;;;;;5053300;28;20200;-83
2021/04/18 00:02:50;;;;;;;10.73;5.17;;;7.30;74.80;;;;;;5053340;28;20412;-83
2021/04/18 00:05:19;;;;;;;13.17;5.40;;;7.30;74.50;;;;;;5053208;28;20172;-83
2021/04/18 00:07:44;;;;;;;10.93;4.67;;;7.40;74.20;;;;;;5052978;28;20199;-83
2021/04/18 00:10:12;;;;;;;15.90;5.20;;;7.40;74.10;;;;;;5054875;28;20172;-83
2021/04/18 00:12:37;;;;;;;7.10;4.23;;;7.40;74.20;;;;;;5054241;28;20203;-83
2021/04/18 00:15:09;;;;;;;11.57;4.67;;;7.40;74.50;;;;;;5054508;28;20214;-83
2021/04/18 00:17:35;;;;;;;8.03;4.80;;;7.50;74.40;;;;;;5054049;28;20270;-83
2021/04/18 00:20:01;;;;;;;11.67;4.70;;;7.40;74.70;;;;;;5052781;28;20175;-83
2021/04/18 00:22:26;;;;;;;14.17;5.07;;;7.40;75.10;;;;;;5054191;28;20547;-83
2021/04/18 00:24:52;;;;;;;7.20;4.73;;;7.40;75.10;;;;;;5052836;28;20556;-83
2021/04/18 00:27:17;;;;;;;12.83;5.40;;;7.40;75.30;;;;;;5052303;28;20570;-83
2021/04/18 00:29:43;;;;;;;11.87;5.20;;;7.40;75.10;;;;;;5052618;28;20176;-83
2021/04/18 00:32:09;;;;;;;10.73;5.40;;;7.40;75.40;;;;;;5054125;28;20268;-83
2021/04/18 00:34:34;;;;;;;9.70;4.90;;;7.40;75.50;;;;;;5052523;28;20205;-83
2021/04/18 00:37:00;;;;;;;17.03;5.53;;;7.30;75.90;;;;;;5052418;28;20199;-83
2021/04/18 00:39:25;;;;;;;9.37;4.80;;;7.30;76.20;;;;;;5054176;28;20198;-82
2021/04/18 00:41:51;;;;;;;10.20;5.37;;;7.30;76.30;;;;;;5052471;28;20229;-82
2021/04/18 00:44:17;;;;;;;11.10;5.90;;;7.30;76.30;;;;;;5052462;28;20175;-83
2021/04/18 00:46:42;;;;;;;10.17;5.43;;;7.30;76.50;;;;;;5053699;28;20199;-83
2021/04/18 00:49:08;;;;;;;9.87;4.67;;;7.30;76.50;;;;;;5053756;28;20708;-83
2021/04/18 00:51:35;;;;;;;11.10;5.67;;;7.30;77.00;;;;;;5053617;28;20196;-83
2021/04/18 00:54:01;;;;;;;9.20;5.17;;;7.30;77.00;;;;;;5053535;28;20175;-83
2021/04/18 00:56:27;;;;;;;9.80;5.07;;;7.30;77.00;;;;;;5053262;28;20183;-83
2021/04/18 00:58:53;;;;;;;12.30;5.03;;;7.30;77.30;;;;;;5079338;22;20299;-80
2021/04/18 01:01:18;;;;;;;10.57;4.87;;;7.30;77.30;;;;;;5052451;28;20605;-80
2021/04/18 01:03:44;;;;;;;11.17;5.10;;;7.30;77.30;;;;;;5053494;28;20232;-80
2021/04/18 01:06:09;;;;;;;9.23;5.33;;;7.30;77.30;;;;;;5053535;28;20175;-80
2021/04/18 01:08:35;;;;;;;9.33;5.67;;;7.30;77.50;;;;;;5053588;28;20330;-81
2021/04/18 01:11:01;;;;;;;9.57;5.47;;;7.30;77.60;;;;;;5052151;28;20225;-80
2021/04/18 01:13:26;;;;;;;8.63;5.50;;;7.20;77.50;;;;;;5053335;28;20655;-80
2021/04/18 01:15:53;;;;;;;10.77;5.27;;;7.20;77.70;;;;;;5053569;28;20178;-80
2021/04/18 01:18:18;;;;;;;9.20;5.67;;;7.30;77.60;;;;;;5052420;28;20222;-81
2021/04/18 01:20:44;;;;;;;13.27;6.10;;;7.30;77.60;;;;;;5054006;28;20626;-81
2021/04/18 01:23:10;;;;;;;14.87;6.23;;;7.30;77.80;;;;;;5051953;28;20183;-80
2021/04/18 01:25:41;;;;;;;13.00;6.80;;;7.20;78.10;;;;;;5052138;28;20258;-80
2021/04/18 01:28:08;;;;;;;11.00;5.33;;;7.30;78.10;;;;;;5053410;28;20196;-80
2021/04/18 01:30:33;;;;;;;8.50;5.70;;;7.20;78.30;;;;;;5051956;28;20237;-80
2021/04/18 01:33:01;;;;;;;14.47;6.17;;;7.20;78.40;;;;;;5052992;28;20203;-80
2021/04/18 01:35:27;;;;;;;8.43;5.60;;;7.20;78.30;;;;;;5053233;28;20168;-80
2021/04/18 01:37:53;;;;;;;9.77;5.50;;;7.20;78.40;;;;;;5053225;28;20233;-80
2021/04/18 01:40:20;;;;;;;10.33;5.40;;;7.20;78.40;;;;;;5055294;28;20649;-80
2021/04/18 01:42:47;;;;;;;12.90;6.03;;;7.20;78.70;;;;;;5057608;28;20281;-82
2021/04/18 01:45:15;;;;;;;12.60;5.63;;;7.20;78.80;;;;;;5057230;28;20233;-80
2021/04/18 01:47:41;;;;;;;11.17;5.90;;;7.10;78.90;;;;;;5057481;28;20195;-80
2021/04/18 01:50:10;;;;;;;10.20;4.83;;;7.10;79.20;;;;;;5055887;28;20190;-80
2021/04/18 01:52:36;;;;;;;12.00;5.60;;;7.10;79.30;;;;;;5057258;28;20555;-80
2021/04/18 01:55:04;;;;;;;10.73;6.17;;;7.00;79.50;;;;;;5057252;28;20179;-80
2021/04/18 01:57:30;;;;;;;13.23;5.37;;;7.00;79.40;;;;;;5056939;28;20211;-79
2021/04/18 01:59:55;;;;;;;10.80;5.47;;;7.10;79.50;;;;;;5057385;28;20603;-80
2021/04/18 02:02:21;;;;;;;18.53;5.70;;;7.00;79.50;;;;;;5057104;28;20191;-80
2021/04/18 02:04:47;;;;;;;9.47;5.33;;;6.90;79.80;;;;;;5055595;28;20186;-80
2021/04/18 02:07:12;;;;;;;16.23;5.97;;;6.90;79.90;;;;;;5056997;28;20256;-80
2021/04/18 02:09:38;;;;;;;12.80;5.80;;;6.80;80.40;;;;;;5056967;28;20182;-80
2021/04/18 02:12:09;;;;;;;11.03;5.90;;;6.70;80.40;;;;;;5055518;28;20668;-81
2021/04/18 02:14:35;;;;;;;9.00;5.47;;;6.60;80.70;;;;;;5055720;28;20261;-80
2021/04/18 02:17:02;;;;;;;9.80;4.97;;;6.50;81.00;;;;;;5056672;28;20244;-80
2021/04/18 02:19:28;;;;;;;11.23;5.53;;;6.50;81.20;;;;;;5056534;28;20552;-80
2021/04/18 02:21:54;;;;;;;11.33;5.57;;;6.40;81.50;;;;;;5057019;28;20182;-80
2021/04/18 02:24:20;;;;;;;13.90;6.43;;;6.30;81.80;;;;;;5057083;28;20188;-82
2021/04/18 02:26:46;;;;;;;14.87;5.53;;;6.30;82.10;;;;;;5055298;28;20176;-83
2021/04/18 02:29:11;;;;;;;17.03;6.23;;;6.30;82.40;;;;;;5056574;28;20226;-80
2021/04/18 02:31:37;;;;;;;7.53;5.23;;;6.20;82.70;;;;;;5056578;28;20207;-80
2021/04/18 02:34:03;;;;;;;11.40;6.20;;;6.10;82.90;;;;;;5056402;28;20212;-83
2021/04/18 02:36:28;;;;;;;8.50;5.93;;;6.00;82.90;;;;;;5055175;28;20177;-80
2021/04/18 02:38:54;;;;;;;15.13;6.27;;;6.10;82.90;;;;;;5056244;28;20200;-81
2021/04/18 02:41:20;;;;;;;16.80;6.20;;;6.00;82.90;;;;;;5056163;28;20202;-80
2021/04/18 02:43:45;;;;;;;13.00;6.47;;;6.00;82.90;;;;;;5056305;28;20213;-80
2021/04/18 02:46:11;;;;;;;14.20;7.27;;;6.00;82.90;;;;;;5056131;28;20177;-80
2021/04/18 02:48:37;;;;;;;14.53;7.23;;;5.90;82.90;;;;;;5054754;28;20208;-83
2021/04/18 02:51:03;;;;;;;12.70;6.97;;;5.80;82.80;;;;;;5055679;28;20173;-80
2021/04/18 02:53:29;;;;;;;8.97;6.17;;;5.80;82.70;;;;;;5056218;28;20589;-80
2021/04/18 02:55:54;;;;;;;8.97;5.37;;;5.80;82.60;;;;;;5056047;28;20188;-80
2021/04/18 02:58:20;;;;;;;12.53;6.80;;;5.80;82.40;;;;;;5055889;28;20212;-80
2021/04/18 03:00:46;;;;;;;13.17;5.87;;;5.60;82.50;;;;;;5054735;28;20181;-80
2021/04/18 03:03:11;;;;;;;14.50;6.50;;;5.60;82.40;;;;;;5054693;28;20189;-81
2021/04/18 03:05:37;;;;;;;9.63;5.80;;;5.50;82.40;;;;;;5056204;28;20184;-80
2021/04/18 03:08:04;;;;;;;11.27;5.57;;;5.40;82.40;;;;;;5054557;28;20232;-83
2021/04/18 03:10:29;;;;;;;12.60;5.77;;;5.40;82.40;;;;;;5054644;28;20184;-80
2021/04/18 03:12:56;;;;;;;10.03;5.70;;;5.30;82.20;;;;;;5055645;28;20565;-83
2021/04/18 03:15:22;;;;;;;9.27;5.77;;;5.30;82.30;;;;;;5054509;28;20188;-80
2021/04/18 03:17:48;;;;;;;15.47;6.40;;;5.20;82.50;;;;;;5055616;28;20200;-80
2021/04/18 03:20:14;;;;;;;9.80;4.90;;;5.20;82.70;;;;;;5055528;28;20519;-81
2021/04/18 03:22:40;;;;;;;8.37;5.23;;;5.10;82.80;;;;;;5055351;28;20281;-81
2021/04/18 03:25:07;;;;;;;14.20;5.77;;;5.10;83.00;;;;;;5055850;28;20701;-80
2021/04/18 03:27:32;;;;;;;10.53;6.03;;;5.00;83.00;;;;;;5055242;28;20204;-80
2021/04/18 03:29:58;;;;;;;14.37;6.30;;;5.00;83.10;;;;;;5054120;28;20210;-80
2021/04/18 03:32:24;;;;;;;11.97;5.70;;;4.80;83.10;;;;;;5055324;28;20661;-80
2021/04/18 03:34:49;;;;;;;11.33;5.97;;;4.80;83.20;;;;;;5055316;28;20179;-80
2021/04/18 03:37:15;;;;;;;16.37;6.27;;;4.70;83.40;;;;;;5055325;28;20242;-80
2021/04/18 03:39:41;;;;;;;10.87;5.77;;;4.60;83.60;;;;;;5055175;28;20204;-80
2021/04/18 03:42:07;;;;;;;12.40;5.77;;;4.60;83.70;;;;;;5055052;28;20187;-80
2021/04/18 03:44:33;;;;;;;10.87;5.50;;;4.60;83.70;;;;;;5055090;28;20188;-80
2021/04/18 03:46:59;;;;;;;10.97;6.17;;;4.60;83.80;;;;;;5053820;28;20232;-80
2021/04/18 03:49:25;;;;;;;12.33;5.67;;;4.60;83.80;;;;;;5054997;28;20207;-81
2021/04/18 03:51:50;;;;;;;10.90;5.70;;;4.60;83.80;;;;;;5054880;28;20203;-82
2021/04/18 03:54:17;;;;;;;12.27;5.40;;;4.60;83.60;;;;;;5053712;28;20182;-82
2021/04/18 03:56:43;;;;;;;8.63;5.77;;;4.70;83.40;;;;;;5055047;28;20540;-83
2021/04/18 03:59:08;;;;;;;15.13;5.70;;;4.70;83.30;;;;;;5054808;28;20217;-80
2021/04/18 04:01:34;;;;;;;17.03;5.90;;;4.60;83.20;;;;;;5054656;28;20176;-80
2021/04/18 04:04:00;;;;;;;13.90;6.07;;;4.60;83.10;;;;;;5054363;28;20270;-80
2021/04/18 04:06:25;;;;;;;10.37;5.90;;;4.60;83.00;;;;;;5054445;28;20207;-80
2021/04/18 04:08:51;;;;;;;8.97;4.93;;;4.60;83.00;;;;;;5055361;28;20196;-81
2021/04/18 04:11:16;;;;;;;10.60;5.50;;;4.60;82.90;;;;;;5055049;28;20191;-80
2021/04/18 04:13:42;;;;;;;13.57;5.37;;;4.60;82.90;;;;;;5054293;28;20187;-80
2021/04/18 04:16:08;;;;;;;15.97;5.80;;;4.50;82.90;;;;;;5054474;28;20251;-80
2021/04/18 04:18:34;;;;;;;9.97;4.80;;;4.40;82.90;;;;;;5054478;28;20203;-80
2021/04/18 04:20:59;;;;;;;8.23;4.70;;;4.40;82.80;;;;;;5054409;28;20174;-80
2021/04/18 04:23:25;;;;;;;15.33;5.07;;;4.30;82.90;;;;;;5054821;28;20688;-80
2021/04/18 04:25:50;;;;;;;11.57;5.30;;;4.30;82.90;;;;;;5054574;28;20255;-81
2021/04/18 04:28:16;;;;;;;8.60;5.17;;;4.20;83.00;;;;;;5052896;28;20207;-80
2021/04/18 04:30:42;;;;;;;11.10;5.07;;;4.20;83.10;;;;;;5052977;28;20644;-81
2021/04/18 04:33:07;;;;;;;10.47;5.83;;;4.30;83.00;;;;;;5054099;28;20259;-80
2021/04/18 04:35:33;;;;;;;8.60;5.00;;;4.30;83.00;;;;;;5052902;28;20175;-80
2021/04/18 04:37:59;;;;;;;13.17;5.20;;;4.40;82.70;;;;;;5053230;28;20660;-81
2021/04/18 04:40:25;;;;;;;12.47;4.73;;;4.50;82.50;;;;;;5054014;28;20199;-80
2021/04/18 04:42:51;;;;;;;10.33;4.83;;;4.50;82.30;;;;;;5054092;28;20179;-80
2021/04/18 04:45:17;;;;;;;19.27;5.47;;;4.50;82.00;;;;;;5054071;28;20762;-80
2021/04/18 04:47:43;;;;;;;7.80;4.60;;;4.50;81.90;;;;;;5052540;28;20671;-81
2021/04/18 04:50:10;;;;;;;14.73;5.70;;;4.50;81.70;;;;;;5054110;28;20178;-80
2021/04/18 04:52:36;;;;;;;10.60;5.00;;;4.60;81.80;;;;;;5053779;28;20232;-80
2021/04/18 04:55:03;;;;;;;14.67;5.20;;;4.60;81.80;;;;;;5054292;28;20174;-80
2021/04/18 04:57:28;;;;;;;14.70;4.87;;;4.60;81.90;;;;;;5052425;28;20221;-83
2021/04/18 04:59:54;;;;;;;13.40;6.10;;;4.60;81.90;;;;;;5053628;28;20172;-80
2021/04/18 05:02:19;;;;;;;9.93;4.93;;;4.70;81.70;;;;;;5054231;28;20656;-80
2021/04/18 05:04:45;;;;;;;7.37;4.80;;;4.80;81.60;;;;;;5053865;28;20262;-80
2021/04/18 05:07:11;;;;;;;7.47;4.50;;;4.90;81.30;;;;;;5053767;28;20198;-80
2021/04/18 05:09:36;;;;;;;13.70;5.23;;;4.90;81.20;;;;;;5053915;28;20798;-80
2021/04/18 05:12:04;;;;;;;11.93;5.47;;;4.90;81.30;;;;;;5053789;28;20204;-81
2021/04/18 05:14:30;;;;;;;9.50;5.30;;;5.00;81.30;;;;;;5053549;28;20167;-80
2021/04/18 05:16:55;;;;;;;12.20;5.17;;;5.00;81.10;;;;;;5052348;28;20183;-83
2021/04/18 05:19:21;;;;;;;14.37;4.90;;;5.10;81.10;;;;;;5052319;28;20182;-80
2021/04/18 05:21:46;;;;;;;9.43;4.43;;;5.10;81.20;;;;;;5053918;28;20190;-83
2021/04/18 05:24:12;;;;;;;9.67;5.03;;;5.20;81.20;;;;;;5053486;28;20207;-80
2021/04/18 05:26:38;;;;;;;12.17;4.63;;;5.30;80.90;;;;;;5052295;28;20202;-81
2021/04/18 05:29:03;;;;;;;8.77;4.77;;;5.40;80.60;;;;;;5053481;28;20203;-80
2021/04/18 05:31:29;;;;;;;12.93;4.50;;;5.50;80.60;;;;;;5054288;28;20207;-80
2021/04/18 05:33:54;;;;;;;11.97;4.73;;;5.60;80.70;;;;;;5053437;28;20637;-80
2021/04/18 05:36:20;;;;;;;9.33;4.60;;;5.70;80.70;;;;;;5053578;28;20618;-81
2021/04/18 05:38:46;;;;;;;6.07;4.13;;;5.70;80.20;;;;;;5053433;28;20203;-80
2021/04/18 05:41:11;;;;;;;8.73;4.40;;;5.80;80.70;;;;;;5052082;28;20175;-80
2021/04/18 05:43:37;;;;;;;8.77;4.00;;;5.80;80.80;;;;;;5053510;28;20209;-83
2021/04/18 05:46:03;;;;;;;8.90;4.53;;;5.80;81.10;;;;;;5053329;28;20206;-81
2021/04/18 05:48:28;;;;;;;7.47;4.10;;;5.90;80.90;;;;;;5053146;28;20213;-80
2021/04/18 05:50:54;;;;;;;10.27;4.10;;;6.00;80.70;;;;;;5052008;28;20179;-83
2021/04/18 05:53:19;;;;;;;11.77;4.17;;;6.00;80.10;;;;;;5053075;28;20197;-80
2021/04/18 05:55:46;;;;;;;5.73;4.00;;;6.10;79.90;;;;;;5053660;28;20202;-80
2021/04/18 05:58:12;;;;;;;6.07;3.30;;;6.20;80.00;;;;;;5052659;28;20239;-81
2021/04/18 06:00:38;;;;;;;18.07;4.57;;;6.20;79.60;;;;;;5051644;28;20269;-80
2021/04/18 06:03:04;;;;;;;12.23;4.97;;;6.30;78.60;;;;;;5053414;28;20219;-80
2021/04/18 06:05:30;;;;;;;14.13;4.30;;;6.30;78.00;;;;;;5053253;28;20212;-80
2021/04/18 06:07:55;;;;;;;7.63;4.13;;;6.40;78.10;;;;;;5053191;28;20220;-81
2021/04/18 06:10:21;;;;;;;12.53;4.63;;;6.50;78.40;;;;;;5052924;28;20181;-80
2021/04/18 06:12:47;;;;;;;9.23;5.10;;;6.70;77.80;;;;;;5052817;28;20205;-82
2021/04/18 06:15:12;;;;;;;10.07;4.50;;;6.80;77.40;;;;;;5052925;28;20174;-80
2021/04/18 06:17:38;;;;;;;11.07;4.13;;;6.80;76.60;;;;;;5051849;28;20232;-79
2021/04/18 06:20:06;;;;;;;7.57;3.87;;;6.80;76.20;;;;;;5053457;28;20174;-80
2021/04/18 06:22:32;;;;;;;9.57;4.40;;;6.90;76.20;;;;;;5052866;28;20656;-81
2021/04/18 06:24:58;;;;;;;7.90;3.87;;;7.00;75.50;;;;;;5052761;28;20174;-80
2021/04/18 06:27:24;;;;;;;15.63;4.70;;;7.00;75.60;;;;;;5055225;28;20252;-83
2021/04/18 06:29:50;;;;;;;13.43;5.47;;;7.00;76.70;;;;;;5056467;28;20184;-80
2021/04/18 06:32:15;;;;;;;12.23;3.93;;;7.10;77.50;;;;;;5055080;28;20211;-79
2021/04/18 06:34:41;;;;;;;11.10;3.87;;;7.30;75.60;;;;;;5055187;28;20200;-79
2021/04/18 06:37:07;;;;;;;9.17;3.60;;;7.30;75.00;;;;;;5056387;28;20197;-80
2021/04/18 06:39:33;;;;;;;14.33;5.37;;;7.40;74.40;;;;;;5056643;28;20183;-82
2021/04/18 06:42:02;;;;;;;8.37;3.23;;;7.50;74.20;;;;;;5056547;28;20597;-79
2021/04/18 06:44:29;;;;;;;10.53;3.77;;;7.50;73.70;;;;;;5055028;28;20186;-80
2021/04/18 06:46:57;;;;;;;11.13;4.10;;;7.60;74.70;;;;;;5056069;28;20201;-79
2021/04/18 06:49:25;;;;;;;7.57;3.80;;;7.70;73.00;;;;;;5056431;28;20590;-80
2021/04/18 06:51:52;;;;;;;9.03;4.00;;;7.70;74.00;;;;;;5054919;28;20320;-80
2021/04/18 06:54:18;;;;;;;9.67;3.87;;;7.80;73.90;;;;;;5054816;28;20187;-80
2021/04/18 06:56:44;;;;;;;5.80;3.60;;;7.80;72.90;;;;;;5056370;28;20659;-82
2021/04/18 06:59:09;;;;;;;7.73;3.83;;;7.90;74.20;;;;;;5081341;22;20234;-81
2021/04/18 07:01:35;;;;;;;7.07;3.60;;;7.90;71.90;;;;;;5055616;28;20179;-82
2021/04/18 07:04:20;;;;;;;6.97;3.73;;;7.90;72.60;;;;;;5055632;28;20199;-81
2021/04/18 07:06:49;;;;;;;11.30;4.07;;;8.00;72.90;;;;;;5054348;28;20179;-81
2021/04/18 07:09:17;;;;;;;9.43;3.80;;;8.00;72.00;;;;;;5055515;28;20218;-81
2021/04/18 07:11:53;;;;;;;11.70;4.20;;;8.00;72.50;;;;;;5055596;28;20583;-81
2021/04/18 07:14:37;;;;;;;11.03;4.20;;;7.90;72.70;;;;;;5055775;28;20165;-82
2021/04/18 07:17:05;;;;;;;8.10;4.40;;;7.90;73.60;;;;;;5054101;28;20531;-81
2021/04/18 07:19:33;;;;;;;13.37;4.10;;;8.20;74.50;;;;;;5055396;28;20172;-82
2021/04/18 07:21:59;;;;;;;8.47;3.87;;;8.10;73.10;;;;;;5054016;28;20203;-81
2021/04/18 07:24:26;;;;;;;5.87;3.67;;;8.30;72.60;;;;;;5055250;28;20545;-81
2021/04/18 07:27:03;;;;;;;5.60;3.60;;;8.30;73.60;;;;;;5053876;28;20175;-81
2021/04/18 07:29:31;;;;;;;8.40;3.33;;;8.50;72.90;;;;;;5055115;28;20196;-81
2021/04/18 07:32:00;;;;;;;12.43;4.00;;;8.50;72.80;;;;;;5055071;28;20226;-81
2021/04/18 07:34:36;;;;;;;12.57;4.40;;;8.40;73.20;;;;;;5054921;28;20532;-81
2021/04/18 07:37:10;;;;;;;13.63;4.70;;;8.40;72.30;;;;;;5052499;28;20176;-81
2021/04/18 07:40:05;;;;;;;9.07;3.93;;;8.40;71.80;;;;;;5054030;28;20594;-81
2021/04/18 07:42:35;;;;;;;11.13;3.43;;;8.60;72.60;;;;;;5054080;28;20195;-81
2021/04/18 07:45:03;;;;;;;10.83;4.43;;;8.70;72.50;;;;;;5054938;28;20164;-82
2021/04/18 07:47:29;;;;;;;12.13;4.07;;;8.90;73.40;;;;;;5054638;28;20246;-80
2021/04/18 07:49:56;;;;;;;11.57;4.50;;;9.00;72.40;;;;;;5053607;28;20176;-81
2021/04/18 07:52:25;;;;;;;9.20;4.13;;;9.00;71.10;;;;;;5054620;28;20204;-82
2021/04/18 07:54:52;;;;;;;7.10;3.87;;;9.20;73.00;;;;;;5054704;28;20168;-81
2021/04/18 07:57:19;;;;;;;10.70;3.80;;;9.10;70.60;;;;;;5054462;28;20176;-81
2021/04/18 07:59:44;;;;;;;9.17;3.70;;;9.10;70.60;;;;;;5054847;28;20153;-82
2021/04/18 08:02:19;;;;;;;9.07;4.37;;;9.20;73.20;;;;;;5054451;28;20180;-82
2021/04/18 08:04:47;;;;;;;10.87;4.33;;;9.30;71.30;;;;;;5053417;28;20577;-81
2021/04/18 08:07:13;;;;;;;7.57;4.03;;;9.40;72.40;;;;;;5053017;28;20180;-80
2021/04/18 08:09:39;;;;;;;10.00;4.30;;;9.30;71.40;;;;;;5054332;28;20178;-81
2021/04/18 08:12:10;;;;;;;11.87;4.80;;;9.30;70.80;;;;;;5052908;28;20210;-81
2021/04/18 08:14:37;;;;;;;8.67;4.23;;;9.40;71.30;;;;;;5053019;28;20176;-81
2021/04/18 08:17:12;;;;;;;9.10;4.47;;;9.70;71.10;;;;;;5054336;28;20574;-81
2021/04/18 08:19:52;;;;;;;11.07;4.27;;;9.80;70.10;;;;;;5054261;28;20234;-82
2021/04/18 08:22:18;;;;;;;10.53;4.53;;;9.80;69.20;;;;;;5052791;28;20255;-82
2021/04/18 08:24:43;;;;;;;13.47;4.60;;;9.90;70.40;;;;;;5052755;28;20269;-81
2021/04/18 08:27:11;;;;;;;6.33;4.47;;;10.00;68.80;;;;;;5052651;28;20646;-80
2021/04/18 08:30:05;;;;;;;7.13;4.17;;;10.00;68.60;;;;;;5052643;28;20275;-82
2021/04/18 08:32:44;;;;;;;9.70;4.07;;;10.10;68.10;;;;;;5053771;28;20187;-81
2021/04/18 08:35:19;;;;;;;7.93;3.90;;;10.00;67.70;;;;;;5053923;28;20216;-81
2021/04/18 08:37:44;;;;;;;8.10;4.63;;;10.30;67.90;;;;;;5053802;28;20262;-81
2021/04/18 08:40:10;;;;;;;10.53;4.30;;;10.40;67.10;;;;;;5054000;28;20203;-81
2021/04/18 08:42:37;;;;;;;12.53;4.43;;;10.50;65.60;;;;;;5052439;28;20271;-82
2021/04/18 08:45:05;;;;;;;11.33;4.17;;;10.70;67.00;;;;;;5053716;28;20172;-82
2021/04/18 08:47:32;;;;;;;13.50;4.67;;;10.80;66.00;;;;;;5053512;28;20671;-81
2021/04/18 08:50:15;;;;;;;17.27;4.20;;;10.80;66.80;;;;;;5053386;28;20179;-82
2021/04/18 08:52:41;;;;;;;10.17;4.13;;;10.90;66.30;;;;;;5052255;28;20192;-82
2021/04/18 08:55:13;;;;;;;11.10;4.30;;;10.90;64.40;;;;;;5052269;28;20616;-81
2021/04/18 08:57:39;;;;;;;9.73;4.67;;;11.10;66.00;;;;;;5053289;28;20287;-81
2021/04/18 09:00:13;;;;;;;9.67;4.30;;;11.10;65.70;;;;;;5053486;28;20180;-81
2021/04/18 09:02:39;;;;;;;9.03;4.60;;;11.30;66.30;;;;;;5053684;28;20201;-81
2021/04/18 09:05:10;;;;;;;7.10;4.73;;;11.40;67.10;;;;;;5053376;28;20180;-82
2021/04/18 09:07:41;;;;;;;10.13;4.80;;;11.70;65.40;;;;;;5053579;28;20665;-81
2021/04/18 09:10:09;;;;;;;5.80;3.90;;;11.70;66.90;;;;;;5053624;28;20235;-82
2021/04/18 09:12:35;;;;;;;8.80;4.53;;;11.90;63.50;;;;;;5053194;28;20188;-82
2021/04/18 09:15:03;;;;;;;8.57;4.50;;;11.90;62.90;;;;;;5053242;28;20190;-82
2021/04/18 09:17:31;;;;;;;11.23;5.07;;;12.10;64.60;;;;;;5051921;28;20192;-81
2021/04/18 09:20:06;;;;;;;10.17;5.13;;;12.00;64.40;;;;;;5053180;28;20254;-82
2021/04/18 09:22:40;;;;;;;7.37;4.97;;;12.00;62.90;;;;;;5051870;28;20175;-82
2021/04/18 09:25:17;;;;;;;6.67;5.07;;;12.30;66.60;;;;;;5052023;28;20180;-81
2021/04/18 09:27:45;;;;;;;9.93;6.03;;;12.30;64.20;;;;;;5053052;28;20211;-82
2021/04/18 09:30:13;;;;;;;7.63;5.20;;;12.00;63.50;;;;;;5053104;28;20176;-81
2021/04/18 09:32:48;;;;;;;8.90;4.80;;;12.20;65.20;;;;;;5052888;28;20203;-81
2021/04/18 09:35:16;;;;;;;9.47;5.07;;;12.30;63.80;;;;;;5053227;28;20524;-81
2021/04/18 09:37:44;;;;;;;8.73;5.13;;;12.20;65.00;;;;;;5053002;28;20661;-82
2021/04/18 09:40:13;;;;;;;10.33;4.93;;;12.10;66.30;;;;;;5051712;28;20176;-82
2021/04/18 09:42:43;;;;;;;8.90;5.13;;;12.10;66.10;;;;;;5051696;28;20278;-83
2021/04/18 09:45:12;;;;;;;7.67;4.50;;;12.00;64.80;;;;;;5053040;28;20176;-82
2021/04/18 09:47:39;;;;;;;9.67;5.17;;;12.30;65.60;;;;;;5053055;28;20196;-82
2021/04/18 09:50:17;;;;;;;8.33;4.77;;;12.50;65.70;;;;;;5051618;28;20191;-83
2021/04/18 09:52:43;;;;;;;8.70;4.80;;;12.70;63.80;;;;;;5053165;28;20187;-82
2021/04/18 09:55:29;;;;;;;7.67;4.60;;;12.80;64.80;;;;;;5051627;28;20538;-82
2021/04/18 09:57:59;;;;;;;11.30;5.57;;;12.90;63.60;;;;;;5052099;28;20700;-82
2021/04/18 10:00:31;;;;;;;12.23;4.90;;;12.70;63.00;;;;;;5053867;28;20168;-82
2021/04/18 10:03:09;;;;;;;6.70;4.53;;;12.70;63.50;;;;;;5055459;28;20184;-82
2021/04/18 10:05:56;;;;;;;9.70;4.77;;;13.10;64.20;;;;;;5055414;28;20184;-82
2021/04/18 10:08:31;;;;;;;10.73;5.07;;;13.00;62.20;;;;;;5055383;28;20207;-83
2021/04/18 10:11:08;;;;;;;10.97;4.83;;;12.90;62.80;;;;;;5055302;28;20179;-82
2021/04/18 10:13:51;;;;;;;8.13;4.97;;;13.20;62.70;;;;;;5056765;28;20705;-82
2021/04/18 10:16:19;;;;;;;8.67;4.93;;;13.10;59.80;;;;;;5055262;28;20176;-82
2021/04/18 10:19:11;;;;;;;6.80;4.40;;;13.20;60.60;;;;;;5056377;28;20195;-82
2021/04/18 10:21:38;;;;;;;8.07;5.07;;;13.30;61.40;;;;;;5056401;28;20172;-82
2021/04/18 10:24:36;;;;;;;7.27;4.47;;;13.50;59.20;;;;;;5056526;28;20183;-83
2021/04/18 10:27:04;;;;;;;8.37;5.13;;;13.60;58.60;;;;;;5055325;28;20218;-83
2021/04/18 10:29:30;;;;;;;15.07;4.80;;;13.80;58.90;;;;;;5055304;28;20694;-83
2021/04/18 10:31:56;;;;;;;10.80;4.93;;;13.80;60.20;;;;;;5056205;28;20195;-83
2021/04/18 10:34:22;;;;;;;11.17;5.10;;;13.70;57.80;;;;;;5054948;28;20225;-83
2021/04/18 10:36:48;;;;;;;6.53;4.50;;;13.80;58.60;;;;;;5056200;28;20172;-83
2021/04/18 10:39:15;;;;;;;9.57;5.03;;;14.20;60.20;;;;;;5056166;28;20665;-83
2021/04/18 10:41:42;;;;;;;11.03;4.83;;;14.10;56.50;;;;;;5054839;28;20709;-83
2021/04/18 10:44:08;;;;;;;7.83;4.50;;;14.20;58.30;;;;;;5056226;28;20172;-84
2021/04/18 10:46:33;;;;;;;11.60;4.53;;;14.30;56.30;;;;;;5054860;28;20191;-83
2021/04/18 10:48:59;;;;;;;7.50;4.13;;;14.40;59.10;;;;;;5054527;28;20207;-83
2021/04/18 10:51:24;;;;;;;9.33;3.90;;;14.40;60.00;;;;;;5055699;28;20176;-83
2021/04/18 10:53:50;;;;;;;4.43;4.00;;;14.20;59.40;;;;;;5054551;28;20226;-83
2021/04/18 10:56:16;;;;;;;8.93;4.50;;;14.30;61.00;;;;;;5055717;28;20181;-82
2021/04/18 10:58:41;;;;;;;7.17;4.60;;;14.40;57.80;;;;;;5055443;28;20215;-83
2021/04/18 11:01:07;;;;;;;9.57;4.10;;;14.40;58.50;;;;;;5055803;28;20269;-83
2021/04/18 11:03:32;;;;;;;13.97;4.40;;;14.30;57.00;;;;;;5055702;28;20172;-83
2021/04/18 11:05:58;;;;;;;5.87;3.93;;;14.50;60.20;;;;;;5055544;28;20176;-83
2021/04/18 11:08:24;;;;;;;8.43;4.50;;;14.50;57.10;;;;;;5054028;28;20207;-84
2021/04/18 11:10:50;;;;;;;10.70;4.10;;;14.50;56.90;;;;;;5054156;28;20255;-84
2021/04/18 11:13:16;;;;;;;7.80;4.30;;;14.70;56.30;;;;;;5055410;28;20199;-83
2021/04/18 11:15:42;;;;;;;7.13;3.83;;;14.60;55.10;;;;;;5053977;28;20297;-84
2021/04/18 11:18:10;;;;;;;8.73;4.30;;;14.40;56.20;;;;;;5056197;28;20199;-84
2021/04/18 11:20:36;;;;;;;9.93;4.40;;;14.70;54.50;;;;;;5056287;28;20223;-84
2021/04/18 11:23:02;;;;;;;11.87;4.70;;;14.90;56.40;;;;;;5056118;28;20187;-84
2021/04/18 11:25:28;;;;;;;7.53;4.17;;;15.00;54.80;;;;;;5056144;28;20302;-83
2021/04/18 11:27:54;;;;;;;6.83;4.00;;;15.50;56.00;;;;;;5054884;28;20230;-84
2021/04/18 11:30:20;;;;;;;6.37;3.97;;;15.40;53.70;;;;;;5055104;28;20543;-84
2021/04/18 11:32:45;;;;;;;10.47;3.83;;;15.50;51.10;;;;;;5054252;28;20207;-84
2021/04/18 11:35:11;;;;;;;5.93;3.40;;;15.50;53.10;;;;;;5054105;28;20176;-84
2021/04/18 11:37:37;;;;;;;6.07;3.63;;;15.50;52.70;;;;;;5055130;28;20192;-83
2021/04/18 11:40:05;;;;;;;8.73;3.53;;;15.30;53.50;;;;;;5053485;28;20200;-83
2021/04/18 11:42:31;;;;;;;5.80;3.70;;;15.40;54.50;;;;;;5054803;28;20229;-83
2021/04/18 11:44:57;;;;;;;10.57;3.83;;;15.20;54.70;;;;;;5053494;28;20852;-83
2021/04/18 11:47:22;;;;;;;6.63;4.00;;;15.50;54.20;;;;;;5053405;28;20176;-83
2021/04/18 11:49:48;;;;;;;6.43;3.87;;;15.60;54.80;;;;;;5054616;28;20527;-84
2021/04/18 11:52:14;;;;;;;7.90;3.83;;;15.60;52.20;;;;;;5053373;28;20231;-84
2021/04/18 11:54:40;;;;;;;7.37;3.60;;;15.80;54.80;;;;;;5056314;28;20175;-83
2021/04/18 11:57:07;;;;;;;5.00;3.37;;;15.80;52.40;;;;;;5055668;28;20176;-82
2021/04/18 11:59:34;;;;;;;9.57;4.07;;;15.60;53.80;;;;;;5053958;28;20341;-83
2021/04/18 12:02:00;;;;;;;6.53;4.10;;;15.60;54.80;;;;;;5054683;28;20195;-84
2021/04/18 12:04:26;;;;;;;7.20;4.67;;;15.50;54.20;;;;;;5054081;28;20199;-83
2021/04/18 12:06:51;;;;;;;7.83;4.47;;;15.30;54.10;;;;;;5053041;28;20645;-83
2021/04/18 12:09:17;;;;;;;8.83;4.43;;;15.30;55.10;;;;;;5052893;28;20254;-84
2021/04/18 12:11:42;;;;;;;8.93;4.87;;;15.20;53.50;;;;;;5052822;28;20574;-84
2021/04/18 12:14:08;;;;;;;10.70;4.63;;;15.00;58.10;;;;;;5052774;28;20180;-84
2021/04/18 12:16:44;;;;;;;9.90;4.60;;;14.80;58.00;;;;;;5054891;28;20180;-85
2021/04/18 12:19:09;;;;;;;6.90;4.57;;;14.80;57.80;;;;;;5055642;28;20605;-85
2021/04/18 12:21:35;;;;;;;5.27;4.77;;;14.90;57.00;;;;;;5056797;28;20175;-85
2021/04/18 12:24:01;;;;;;;8.83;5.33;;;15.20;55.90;;;;;;5052062;28;20262;-84
2021/04/18 12:26:27;;;;;;;9.13;5.83;;;15.50;56.00;;;;;;5053180;28;20217;-84
2021/04/18 12:28:53;;;;;;;8.57;4.63;;;15.60;55.30;;;;;;5052525;28;20202;-85
2021/04/18 12:31:20;;;;;;;12.37;5.63;;;15.60;53.10;;;;;;5052911;28;20215;-84
2021/04/18 12:33:46;;;;;;;11.40;5.80;;;15.70;56.00;;;;;;5054708;28;20221;-84
2021/04/18 12:36:12;;;;;;;16.30;6.23;;;15.90;55.00;;;;;;5054576;28;20582;-84
2021/04/18 12:38:38;;;;;;;8.10;5.13;;;16.10;56.10;;;;;;5052459;28;20257;-84
2021/04/18 12:41:04;;;;;;;9.43;5.43;;;16.00;57.00;;;;;;5052528;28;20203;-83
2021/04/18 12:43:30;;;;;;;11.67;5.60;;;16.00;56.30;;;;;;5052283;28;20214;-84
2021/04/18 12:45:56;;;;;;;10.53;4.50;;;16.00;54.90;;;;;;5053623;28;20168;-83
2021/04/18 12:48:21;;;;;;;9.83;5.33;;;16.10;56.10;;;;;;5052368;28;20270;-83